Time;durP1;ratioP1;P1;durP2;ratioP2;P2;SDS_P1;SDS_P2;PMS_P1;PMS_P2;Temp;Humidity;BMP_temperature;BMP_pressure;BME280_temperature;BME280_humidity;BME280_pressure;Samples;Min_cycle;Max_cycle;Signal;HPM_P1;HPM_P2
2021/01/25 00:02:25;;;;;;;14.05;9.25;;;6.30;90.00;;;;;;5074160;28;20033;-58
2021/01/25 00:04:51;;;;;;;16.15;10.85;;;6.30;90.00;;;;;;5074995;28;20091;-60
2021/01/25 00:07:16;;;;;;;14.32;10.27;;;6.30;90.00;;;;;;5073126;28;20500;-61
2021/01/25 00:09:42;;;;;;;13.82;9.75;;;6.30;89.90;;;;;;5055022;28;20064;-61
2021/01/25 00:12:08;;;;;;;12.68;9.88;;;6.30;89.80;;;;;;5068103;28;20043;-60
2021/01/25 00:14:34;;;;;;;11.75;9.68;;;6.30;90.00;;;;;;5060899;28;20040;-60
2021/01/25 00:17:00;;;;;;;14.93;9.98;;;6.30;90.10;;;;;;5074951;28;20464;-62
2021/01/25 00:19:26;;;;;;;13.82;8.45;;;6.30;90.20;;;;;;5065214;28;20146;-62
2021/01/25 00:21:52;;;;;;;14.50;10.52;;;6.40;90.30;;;;;;5063919;28;20032;-62
2021/01/25 00:24:18;;;;;;;12.85;9.45;;;6.40;90.40;;;;;;5074755;28;20345;-62
2021/01/25 00:26:44;;;;;;;12.90;9.30;;;6.50;90.50;;;;;;5070119;28;20071;-61
2021/01/25 00:29:09;;;;;;;12.95;9.25;;;6.60;90.50;;;;;;5074589;28;20411;-62
2021/01/25 00:31:35;;;;;;;10.73;8.77;;;6.60;90.50;;;;;;5073434;28;20372;-62
2021/01/25 00:34:01;;;;;;;10.70;7.82;;;6.70;90.60;;;;;;5067643;28;20029;-62
2021/01/25 00:36:26;;;;;;;11.93;8.52;;;6.80;90.60;;;;;;5071380;28;20091;-60
2021/01/25 00:38:52;;;;;;;13.75;9.07;;;6.80;90.60;;;;;;5073865;28;20031;-60
2021/01/25 00:41:18;;;;;;;14.38;9.40;;;6.90;90.60;;;;;;5073965;28;20039;-60
2021/01/25 00:43:45;;;;;;;10.88;8.68;;;6.90;90.50;;;;;;5073944;28;20500;-60
2021/01/25 00:46:11;;;;;;;10.43;7.95;;;7.00;90.30;;;;;;5074602;28;20028;-60
2021/01/25 00:48:36;;;;;;;10.88;8.65;;;7.00;90.00;;;;;;5065604;28;20074;-60
2021/01/25 00:51:02;;;;;;;11.93;8.55;;;6.90;89.70;;;;;;5074089;28;20028;-59
2021/01/25 00:53:28;;;;;;;11.73;8.98;;;6.90;89.70;;;;;;5073233;28;20056;-60
2021/01/25 00:55:53;;;;;;;12.00;8.05;;;6.80;89.80;;;;;;5066547;28;20056;-60
2021/01/25 00:58:19;;;;;;;12.75;9.13;;;6.80;89.90;;;;;;5073696;28;20024;-60
2021/01/25 01:00:45;;;;;;;10.02;7.72;;;6.80;90.00;;;;;;5069366;28;20024;-58
2021/01/25 01:03:11;;;;;;;14.27;10.05;;;6.80;90.20;;;;;;5072353;28;20031;-60
2021/01/25 01:05:36;;;;;;;11.80;9.00;;;6.80;90.10;;;;;;5073556;28;20016;-60
2021/01/25 01:08:02;;;;;;;11.85;9.50;;;6.80;90.30;;;;;;5058812;28;20045;-59
2021/01/25 01:10:29;;;;;;;14.75;10.13;;;6.90;90.20;;;;;;5073438;28;20048;-59
2021/01/25 01:12:54;;;;;;;10.75;8.73;;;6.90;89.90;;;;;;5060713;28;20468;-60
2021/01/25 01:15:20;;;;;;;13.45;9.38;;;7.00;89.50;;;;;;5073661;28;20025;-60
2021/01/25 01:17:46;;;;;;;10.80;8.32;;;6.90;88.60;;;;;;5073409;28;20490;-60
2021/01/25 01:20:12;;;;;;;11.73;8.25;;;6.80;87.70;;;;;;5061499;28;20031;-60
2021/01/25 01:22:38;;;;;;;11.27;8.05;;;6.70;87.20;;;;;;5073356;28;20048;-59
2021/01/25 01:25:06;;;;;;;10.65;7.72;;;6.60;87.10;;;;;;5073396;28;20476;-59
2021/01/25 01:27:32;;;;;;;11.07;7.93;;;6.50;86.90;;;;;;5073469;28;20019;-60
2021/01/25 01:29:58;;;;;;;10.55;8.20;;;6.30;86.40;;;;;;5073274;28;20115;-60
2021/01/25 01:32:24;;;;;;;10.95;7.90;;;6.10;86.30;;;;;;5065729;28;20024;-59
2021/01/25 01:34:49;;;;;;;8.60;7.10;;;6.00;86.90;;;;;;5073074;28;20029;-59
2021/01/25 01:37:15;;;;;;;11.65;8.88;;;5.90;87.50;;;;;;5062344;28;20052;-60
2021/01/25 01:39:41;;;;;;;13.18;9.13;;;5.90;87.70;;;;;;5073414;28;20043;-59
2021/01/25 01:42:13;;;;;;;11.23;7.75;;;5.90;87.90;;;;;;5073398;28;20519;-60
2021/01/25 01:44:39;;;;;;;11.32;8.75;;;5.80;88.20;;;;;;5064800;28;20104;-61
2021/01/25 01:47:05;;;;;;;34.55;9.50;;;5.80;88.20;;;;;;5059127;28;20115;-60
2021/01/25 01:49:30;;;;;;;13.68;8.50;;;5.70;88.30;;;;;;5073431;28;20322;-60
2021/01/25 01:51:56;;;;;;;11.93;8.15;;;5.70;88.40;;;;;;5073107;28;20086;-60
2021/01/25 01:54:22;;;;;;;11.95;8.55;;;5.70;88.30;;;;;;5064838;28;20032;-61
2021/01/25 01:56:48;;;;;;;12.40;8.75;;;5.60;88.60;;;;;;5061593;28;20091;-60
2021/01/25 01:59:14;;;;;;;11.18;8.32;;;5.70;89.00;;;;;;5052936;28;20032;-60
2021/01/25 02:01:39;;;;;;;11.65;7.47;;;5.60;88.90;;;;;;5053270;28;20029;-60
2021/01/25 02:04:05;;;;;;;12.45;8.75;;;5.70;89.00;;;;;;5061301;28;20112;-60
2021/01/25 02:06:33;;;;;;;11.85;8.00;;;5.70;89.30;;;;;;5069376;28;20771;-60
2021/01/25 02:09:03;;;;;;;9.77;7.28;;;5.70;89.30;;;;;;5066501;28;20028;-60
2021/01/25 02:11:29;;;;;;;9.77;7.60;;;5.70;89.00;;;;;;5070934;28;20029;-60
2021/01/25 02:13:56;;;;;;;13.10;9.60;;;5.70;88.90;;;;;;5071041;28;20060;-59
2021/01/25 02:16:21;;;;;;;12.13;9.20;;;5.70;89.80;;;;;;5077091;28;20115;-60
2021/01/25 02:18:47;;;;;;;13.18;9.43;;;5.80;90.10;;;;;;5061656;28;20565;-58
2021/01/25 02:21:15;;;;;;;11.63;7.18;;;5.90;90.20;;;;;;5076975;28;20028;-60
2021/01/25 02:23:55;;;;;;;13.70;8.55;;;6.00;90.80;;;;;;5076824;28;20012;-60
2021/01/25 02:26:32;;;;;;;14.88;8.43;;;6.20;91.30;;;;;;5065145;28;20025;-61
2021/01/25 02:28:58;;;;;;;15.02;8.63;;;6.40;91.50;;;;;;5070473;28;20025;-61
2021/01/25 02:31:25;;;;;;;13.90;7.90;;;6.60;91.80;;;;;;5057264;28;20037;-61
2021/01/25 02:33:54;;;;;;;15.23;8.30;;;6.80;92.00;;;;;;5070109;28;20082;-61
2021/01/25 02:36:22;;;;;;;13.45;7.78;;;7.00;92.00;;;;;;5056865;28;20037;-60
2021/01/25 02:38:50;;;;;;;12.45;7.93;;;7.20;91.90;;;;;;5056624;28;20029;-60
2021/01/25 02:41:20;;;;;;;13.32;7.35;;;7.30;91.90;;;;;;5064486;28;20037;-61
2021/01/25 02:43:48;;;;;;;19.88;9.93;;;7.50;91.80;;;;;;5075159;28;20063;-60
2021/01/25 02:46:15;;;;;;;14.82;8.50;;;7.70;91.70;;;;;;5056940;28;20025;-60
2021/01/25 02:48:40;;;;;;;9.70;6.85;;;7.80;91.60;;;;;;5056676;28;20025;-61
2021/01/25 02:51:06;;;;;;;17.75;9.75;;;7.90;91.40;;;;;;5070405;28;20028;-60
2021/01/25 02:53:32;;;;;;;11.90;7.13;;;8.00;91.30;;;;;;5067259;28;20060;-59
2021/01/25 02:55:59;;;;;;;11.52;6.43;;;8.10;91.20;;;;;;5062675;28;20025;-61
2021/01/25 02:58:26;;;;;;;10.93;7.32;;;8.20;91.10;;;;;;5076025;28;20347;-60
2021/01/25 03:00:52;;;;;;;13.73;8.30;;;8.20;91.00;;;;;;5063865;28;20064;-60
2021/01/25 03:03:19;;;;;;;16.60;9.75;;;8.30;90.90;;;;;;5061177;28;20044;-61
2021/01/25 03:05:46;;;;;;;14.02;8.07;;;8.40;90.90;;;;;;5056365;28;20056;-60
2021/01/25 03:08:12;;;;;;;16.10;10.07;;;8.40;90.90;;;;;;5056105;28;20045;-60
2021/01/25 03:10:38;;;;;;;17.55;10.70;;;8.50;90.90;;;;;;5063641;28;20025;-60
2021/01/25 03:13:05;;;;;;;21.48;11.63;;;8.60;90.80;;;;;;5068369;28;20537;-60
2021/01/25 03:15:36;;;;;;;28.77;16.77;;;8.60;90.70;;;;;;5063933;28;20159;-61
2021/01/25 03:18:02;;;;;;;35.08;20.38;;;8.70;90.60;;;;;;5071709;28;20078;-61
2021/01/25 03:20:28;;;;;;;42.85;22.33;;;8.70;90.60;;;;;;5075276;28;20465;-60
2021/01/25 03:22:54;;;;;;;42.45;20.17;;;8.80;90.60;;;;;;5075510;28;20039;-61
2021/01/25 03:25:20;;;;;;;36.75;21.38;;;8.80;90.40;;;;;;5075159;28;20027;-61
2021/01/25 03:27:45;;;;;;;44.85;19.17;;;8.90;90.30;;;;;;5064326;28;20485;-61
2021/01/25 03:30:13;;;;;;;34.53;19.27;;;8.90;90.20;;;;;;5073377;28;20380;-61
2021/01/25 03:32:39;;;;;;;28.05;15.70;;;8.90;90.20;;;;;;5074819;28;20549;-60
2021/01/25 03:35:09;;;;;;;24.98;13.95;;;8.90;90.20;;;;;;5062120;28;20060;-60
2021/01/25 03:37:35;;;;;;;15.57;11.48;;;9.00;90.00;;;;;;5075442;28;20036;-61
2021/01/25 03:40:01;;;;;;;19.90;12.38;;;9.00;90.00;;;;;;5075396;28;20016;-60
2021/01/25 03:42:27;;;;;;;20.15;11.90;;;9.00;89.70;;;;;;5075475;28;20081;-60
2021/01/25 03:44:53;;;;;;;18.40;12.90;;;9.00;89.50;;;;;;5074361;28;20031;-61
2021/01/25 03:47:18;;;;;;;18.50;12.18;;;9.00;89.10;;;;;;5075184;28;20108;-60
2021/01/25 03:49:44;;;;;;;16.65;12.25;;;9.00;89.20;;;;;;5074963;28;20036;-60
2021/01/25 03:52:10;;;;;;;19.33;12.25;;;9.00;89.20;;;;;;5074822;28;20091;-61
2021/01/25 03:54:35;;;;;;;18.90;11.88;;;9.10;89.00;;;;;;5075051;28;20064;-61
2021/01/25 03:57:04;;;;;;;17.48;12.82;;;9.10;88.90;;;;;;5074989;28;20078;-61
2021/01/25 03:59:32;;;;;;;17.02;11.25;;;9.00;88.60;;;;;;5070483;28;20017;-60
2021/01/25 04:01:58;;;;;;;18.00;11.77;;;9.00;88.50;;;;;;5065073;28;20445;-61
2021/01/25 04:04:24;;;;;;;23.42;11.82;;;9.00;88.40;;;;;;5059939;28;20449;-61
2021/01/25 04:06:50;;;;;;;23.48;13.45;;;9.00;88.30;;;;;;5074821;28;20124;-61
2021/01/25 04:09:16;;;;;;;18.90;12.75;;;9.00;89.00;;;;;;5074948;28;20043;-61
2021/01/25 04:11:45;;;;;;;22.98;12.35;;;9.00;88.50;;;;;;5061993;28;20029;-61
2021/01/25 04:14:11;;;;;;;20.40;11.73;;;9.00;88.50;;;;;;5054942;28;20033;-59
2021/01/25 04:16:37;;;;;;;18.92;12.38;;;9.00;88.50;;;;;;5068545;28;20051;-61
2021/01/25 04:19:04;;;;;;;18.90;11.82;;;9.00;88.30;;;;;;5056485;28;20083;-61
2021/01/25 04:21:30;;;;;;;20.38;12.75;;;9.00;88.00;;;;;;5074071;28;20350;-61
2021/01/25 04:23:56;;;;;;;16.73;11.27;;;9.00;88.10;;;;;;5066175;28;20036;-60
2021/01/25 04:26:21;;;;;;;17.27;11.07;;;9.00;88.30;;;;;;5054857;28;20017;-60
2021/01/25 04:28:47;;;;;;;20.73;12.90;;;9.00;87.80;;;;;;5074660;28;20027;-60
2021/01/25 04:31:13;;;;;;;19.42;12.38;;;9.00;87.90;;;;;;5073706;28;20070;-59
2021/01/25 04:33:40;;;;;;;17.27;11.93;;;9.00;87.80;;;;;;5073649;28;20024;-61
2021/01/25 04:36:06;;;;;;;18.67;11.10;;;9.00;87.80;;;;;;5068097;28;20032;-60
2021/01/25 04:38:32;;;;;;;18.30;11.38;;;9.00;87.60;;;;;;5060341;28;20021;-60
2021/01/25 04:40:59;;;;;;;18.55;11.57;;;9.00;87.40;;;;;;5074460;28;20036;-60
2021/01/25 04:43:26;;;;;;;20.33;12.57;;;9.00;87.40;;;;;;5072968;28;20017;-60
2021/01/25 04:45:53;;;;;;;18.20;10.93;;;8.90;87.20;;;;;;5054348;28;20025;-61
2021/01/25 04:48:21;;;;;;;15.05;10.48;;;8.90;87.50;;;;;;5054361;28;20017;-60
2021/01/25 04:50:49;;;;;;;18.05;11.32;;;8.80;87.50;;;;;;5067927;28;20025;-60
2021/01/25 04:53:15;;;;;;;19.05;12.07;;;8.80;87.60;;;;;;5066297;28;20115;-60
2021/01/25 04:55:42;;;;;;;15.20;10.93;;;8.80;87.60;;;;;;5073206;28;20056;-60
2021/01/25 04:58:08;;;;;;;15.10;11.38;;;8.80;86.80;;;;;;5066973;28;20528;-61
2021/01/25 05:00:34;;;;;;;16.40;11.73;;;8.70;85.70;;;;;;5070916;28;20036;-60
2021/01/25 05:02:59;;;;;;;15.88;11.38;;;8.60;84.90;;;;;;5069426;28;20140;-60
2021/01/25 05:05:25;;;;;;;16.02;10.30;;;8.50;84.70;;;;;;5064850;28;20021;-60
2021/01/25 05:07:51;;;;;;;14.05;10.70;;;8.30;84.50;;;;;;5070211;28;20064;-60
2021/01/25 05:10:17;;;;;;;19.17;12.23;;;8.20;84.40;;;;;;5062975;28;20402;-60
2021/01/25 05:12:50;;;;;;;17.48;12.23;;;8.00;84.10;;;;;;5073760;28;20021;-60
2021/01/25 05:15:33;;;;;;;20.85;13.68;;;7.80;84.80;;;;;;5073836;28;20096;-60
2021/01/25 05:18:04;;;;;;;20.48;12.35;;;7.70;84.90;;;;;;5072501;28;20020;-61
2021/01/25 05:20:32;;;;;;;16.57;11.23;;;7.60;86.10;;;;;;5072727;28;20509;-60
2021/01/25 05:23:01;;;;;;;21.05;12.90;;;7.60;87.10;;;;;;5059403;28;20262;-58
2021/01/25 05:25:32;;;;;;;16.40;11.20;;;7.70;88.00;;;;;;5072125;28;20068;-59
2021/01/25 05:27:59;;;;;;;17.10;11.52;;;7.80;88.60;;;;;;5072842;28;20029;-62
2021/01/25 05:30:26;;;;;;;18.42;11.63;;;7.90;88.60;;;;;;5054457;28;20020;-60
2021/01/25 05:32:57;;;;;;;17.23;11.63;;;8.00;88.60;;;;;;5066102;28;20055;-61
2021/01/25 05:35:28;;;;;;;17.10;11.43;;;8.10;88.50;;;;;;5064694;28;20014;-60
2021/01/25 05:37:59;;;;;;;15.80;11.23;;;8.30;88.30;;;;;;5072930;28;20021;-60
2021/01/25 05:40:26;;;;;;;17.60;11.80;;;8.30;88.20;;;;;;5073089;28;20021;-60
2021/01/25 05:42:53;;;;;;;19.17;11.52;;;8.40;88.00;;;;;;5073165;28;20459;-60
2021/01/25 05:45:20;;;;;;;18.98;12.48;;;8.50;87.70;;;;;;5071806;28;20017;-61
2021/01/25 05:47:50;;;;;;;18.30;11.65;;;8.50;87.70;;;;;;5071699;28;20023;-61
2021/01/25 05:50:33;;;;;;;16.58;11.38;;;8.60;87.50;;;;;;5071526;28;20017;-60
2021/01/25 05:53:07;;;;;;;18.00;11.52;;;8.70;87.20;;;;;;5054514;28;20025;-60
2021/01/25 05:55:34;;;;;;;16.73;10.63;;;8.70;87.10;;;;;;5053803;28;20740;-61
2021/01/25 05:58:01;;;;;;;17.40;10.85;;;8.70;86.60;;;;;;5058936;28;20028;-60
2021/01/25 06:00:28;;;;;;;15.95;10.15;;;8.70;86.10;;;;;;5071123;28;20102;-61
2021/01/25 06:02:54;;;;;;;15.30;10.60;;;8.70;85.90;;;;;;5057870;28;20032;-60
2021/01/25 06:05:34;;;;;;;17.42;12.05;;;8.60;86.00;;;;;;5062073;28;20078;-61
2021/01/25 06:08:19;;;;;;;20.75;11.75;;;8.60;86.00;;;;;;5069900;28;20103;-60
2021/01/25 06:10:53;;;;;;;13.50;8.93;;;8.70;86.20;;;;;;5072757;28;20032;-60
2021/01/25 06:13:25;;;;;;;15.43;10.32;;;8.70;86.10;;;;;;5054188;28;20029;-60
2021/01/25 06:15:53;;;;;;;16.48;10.23;;;8.70;85.90;;;;;;5065103;28;20021;-60
2021/01/25 06:18:21;;;;;;;14.07;9.80;;;8.70;86.00;;;;;;5072481;28;20024;-60
2021/01/25 06:20:50;;;;;;;15.27;10.27;;;8.70;85.80;;;;;;5062458;28;20032;-60
2021/01/25 06:23:17;;;;;;;14.45;9.77;;;8.80;86.00;;;;;;5069587;28;20020;-60
2021/01/25 06:25:43;;;;;;;16.33;10.68;;;8.80;86.10;;;;;;5072431;28;20017;-60
2021/01/25 06:28:13;;;;;;;17.05;11.20;;;8.80;85.90;;;;;;5057423;28;20078;-59
2021/01/25 06:30:43;;;;;;;16.10;10.80;;;8.80;85.60;;;;;;5053459;28;20452;-60
2021/01/25 06:33:12;;;;;;;15.23;10.45;;;8.90;85.50;;;;;;5066862;28;20499;-61
2021/01/25 06:35:38;;;;;;;15.68;9.13;;;8.80;85.30;;;;;;5067924;28;20074;-60
2021/01/25 06:38:11;;;;;;;15.52;9.95;;;8.90;85.50;;;;;;5064388;28;20040;-60
2021/01/25 06:40:42;;;;;;;16.45;10.32;;;8.80;85.20;;;;;;5061265;28;21694;-60
2021/01/25 06:43:10;;;;;;;11.80;9.05;;;8.90;85.30;;;;;;5065651;28;20048;-60
2021/01/25 06:45:37;;;;;;;16.60;9.88;;;8.80;85.10;;;;;;5058225;28;20757;-59
2021/01/25 06:48:06;;;;;;;14.65;9.80;;;8.80;85.20;;;;;;5063554;28;20420;-59
2021/01/25 06:50:32;;;;;;;13.88;10.65;;;8.80;85.50;;;;;;5059701;28;20025;-60
2021/01/25 06:52:57;;;;;;;14.05;9.43;;;8.90;85.50;;;;;;5059878;28;20043;-59
2021/01/25 06:55:29;;;;;;;13.15;9.15;;;8.90;85.50;;;;;;5066277;28;20504;-60
2021/01/25 06:57:55;;;;;;;;;;;8.90;85.20;;;;;;5065049;28;20024;-60
2021/01/25 07:00:24;;;;;;;15.30;8.90;;;8.80;84.90;;;;;;5058275;28;20307;-60
2021/01/25 07:03:04;;;;;;;11.10;7.88;;;8.90;85.20;;;;;;5066704;28;20044;-59
2021/01/25 07:05:32;;;;;;;12.15;9.23;;;8.90;85.20;;;;;;5066553;28;20365;-59
2021/01/25 07:08:22;;;;;;;15.52;10.38;;;8.90;85.00;;;;;;5062341;28;20041;-58
2021/01/25 07:11:04;;;;;;;15.30;11.95;;;8.90;85.00;;;;;;5065798;28;20043;-60
2021/01/25 07:13:32;;;;;;;20.38;14.00;;;8.90;84.90;;;;;;5064745;28;20025;-60
2021/01/25 07:15:59;;;;;;;21.98;13.63;;;8.80;85.00;;;;;;5060321;28;20141;-60
2021/01/25 07:18:26;;;;;;;22.63;15.02;;;8.90;85.30;;;;;;5058582;28;20395;-59
2021/01/25 07:20:57;;;;;;;21.20;13.63;;;8.90;85.20;;;;;;5060880;28;20044;-61
2021/01/25 07:23:25;;;;;;;16.45;12.10;;;8.90;85.40;;;;;;5057081;28;20040;-58
2021/01/25 07:25:58;;;;;;;18.60;12.40;;;8.90;85.50;;;;;;5060299;28;20060;-61
2021/01/25 07:28:27;;;;;;;19.85;12.63;;;8.90;85.20;;;;;;5060807;28;20024;-61
2021/01/25 07:30:53;;;;;;;17.75;11.85;;;8.90;85.60;;;;;;5052651;28;20041;-61
2021/01/25 07:33:19;;;;;;;15.25;11.05;;;8.90;85.70;;;;;;5059731;28;20044;-61
2021/01/25 07:35:46;;;;;;;16.65;10.63;;;8.90;85.80;;;;;;5061830;28;20634;-61
2021/01/25 07:38:12;;;;;;;15.70;10.38;;;8.90;86.00;;;;;;5066413;28;20099;-61
2021/01/25 07:40:38;;;;;;;16.83;11.75;;;9.00;86.20;;;;;;5060307;28;20434;-60
2021/01/25 07:43:05;;;;;;;17.33;12.15;;;9.00;86.10;;;;;;5058537;28;21299;-60
2021/01/25 07:45:32;;;;;;;21.42;13.45;;;9.00;85.90;;;;;;5064724;28;20083;-61
2021/01/25 07:47:58;;;;;;;20.05;13.40;;;9.00;85.70;;;;;;5061037;28;20029;-61
2021/01/25 07:50:24;;;;;;;26.83;16.00;;;9.00;85.50;;;;;;5063428;28;20055;-61
2021/01/25 07:53:01;;;;;;;19.27;14.05;;;8.90;85.60;;;;;;5060552;28;20032;-61
2021/01/25 07:55:28;;;;;;;12.68;9.32;;;8.90;85.60;;;;;;5051688;28;20033;-61
2021/01/25 07:58:04;;;;;;;10.20;7.90;;;8.70;83.40;;;;;;5052769;28;20036;-61
2021/01/25 08:00:30;;;;;;;12.48;8.50;;;8.60;82.80;;;;;;5047625;28;20078;-61
2021/01/25 08:03:05;;;;;;;10.98;7.63;;;8.30;82.90;;;;;;5052632;28;20025;-61
2021/01/25 08:05:32;;;;;;;12.60;8.43;;;8.20;82.70;;;;;;5059560;28;20115;-60
2021/01/25 08:08:01;;;;;;;10.95;7.18;;;8.00;82.90;;;;;;5058985;28;20044;-61
2021/01/25 08:10:30;;;;;;;15.13;9.57;;;7.80;83.20;;;;;;5057525;28;20029;-62
2021/01/25 08:12:57;;;;;;;14.52;9.55;;;7.70;83.50;;;;;;5055154;28;20047;-61
2021/01/25 08:15:29;;;;;;;12.50;8.18;;;7.60;83.70;;;;;;5055911;28;20029;-61
2021/01/25 08:18:03;;;;;;;10.13;7.63;;;7.60;83.90;;;;;;5054019;28;20108;-61
2021/01/25 08:20:33;;;;;;;11.00;7.88;;;7.50;84.10;;;;;;5052693;28;20082;-61
2021/01/25 08:23:07;;;;;;;9.65;7.35;;;7.50;84.20;;;;;;5053979;28;20094;-61
2021/01/25 08:25:34;;;;;;;10.55;9.07;;;7.40;83.80;;;;;;5053762;28;20135;-62
2021/01/25 08:28:05;;;;;;;15.02;11.52;;;7.30;84.00;;;;;;5053618;28;20108;-61
2021/01/25 08:30:40;;;;;;;12.45;9.30;;;7.20;84.40;;;;;;5057993;28;20032;-60
2021/01/25 08:33:08;;;;;;;16.17;10.80;;;7.10;84.70;;;;;;5054888;28;20384;-62
2021/01/25 08:35:39;;;;;;;20.52;10.95;;;7.00;83.60;;;;;;5054809;28;20632;-62
2021/01/25 08:38:07;;;;;;;11.85;9.05;;;6.80;83.30;;;;;;5058593;28;20082;-60
2021/01/25 08:40:35;;;;;;;10.95;8.10;;;6.50;83.40;;;;;;5054127;28;20043;-60
2021/01/25 08:43:01;;;;;;;25.25;10.93;;;6.40;83.70;;;;;;5061450;28;20028;-59
2021/01/25 08:45:30;;;;;;;21.55;11.20;;;6.20;84.00;;;;;;5055398;28;20054;-60
2021/01/25 08:48:07;;;;;;;15.25;10.23;;;6.10;84.30;;;;;;5057540;28;20064;-62
2021/01/25 08:50:33;;;;;;;14.07;8.60;;;5.90;84.40;;;;;;5055299;28;20366;-60
2021/01/25 08:53:06;;;;;;;15.15;9.68;;;5.80;85.50;;;;;;5054781;28;20036;-60
2021/01/25 08:55:42;;;;;;;14.63;8.82;;;5.80;86.10;;;;;;5051315;28;20938;-60
2021/01/25 08:58:34;;;;;;;14.68;10.32;;;5.80;86.60;;;;;;5056934;28;20024;-60
2021/01/25 09:01:11;;;;;;;;;;;5.90;87.00;;;;;;5052736;28;20046;-59
2021/01/25 09:03:37;;;;;;;14.32;8.40;;;5.90;87.00;;;;;;5058643;28;20443;-60
2021/01/25 09:06:04;;;;;;;14.60;10.30;;;5.90;87.00;;;;;;5062812;28;20078;-60
2021/01/25 09:08:30;;;;;;;14.95;10.02;;;6.00;86.70;;;;;;5051359;28;20090;-60
2021/01/25 09:10:57;;;;;;;17.85;11.82;;;6.00;86.70;;;;;;5053297;28;20032;-60
2021/01/25 09:13:23;;;;;;;16.92;11.32;;;6.00;86.40;;;;;;5051204;28;20069;-61
2021/01/25 09:15:49;;;;;;;21.05;12.32;;;5.90;86.00;;;;;;5050601;28;20501;-61
2021/01/25 09:18:15;;;;;;;19.95;11.80;;;5.90;85.80;;;;;;5046180;28;20039;-60
2021/01/25 09:20:40;;;;;;;19.67;11.57;;;5.80;85.50;;;;;;5049348;28;20032;-60
2021/01/25 09:23:07;;;;;;;20.50;12.00;;;5.70;85.80;;;;;;5048215;28;20048;-61
2021/01/25 09:25:32;;;;;;;17.98;11.02;;;5.60;86.30;;;;;;5049684;28;20115;-61
2021/01/25 09:27:58;;;;;;;22.95;12.57;;;5.50;86.80;;;;;;5050677;28;20021;-61
2021/01/25 09:30:27;;;;;;;19.00;12.48;;;5.60;87.40;;;;;;5049059;28;20195;-60
2021/01/25 09:32:52;;;;;;;17.45;11.35;;;5.70;87.90;;;;;;5048886;28;20094;-61
2021/01/25 09:35:18;;;;;;;16.45;11.20;;;5.80;88.00;;;;;;5043908;28;20029;-59
2021/01/25 09:37:44;;;;;;;18.42;12.10;;;5.80;88.00;;;;;;5055018;28;20354;-61
2021/01/25 09:40:11;;;;;;;17.88;11.70;;;5.90;87.60;;;;;;5054822;28;20519;-60
2021/01/25 09:42:37;;;;;;;18.42;10.63;;;5.90;87.10;;;;;;5058726;28;20069;-61
2021/01/25 09:45:04;;;;;;;17.17;12.15;;;5.90;87.10;;;;;;5052807;28;20120;-60
2021/01/25 09:47:29;;;;;;;16.48;10.80;;;5.90;87.00;;;;;;5052724;28;20036;-61
2021/01/25 09:49:55;;;;;;;15.85;9.77;;;5.80;86.60;;;;;;5048982;28;20037;-60
2021/01/25 09:52:21;;;;;;;13.52;9.43;;;5.70;86.70;;;;;;5042822;28;20042;-60
2021/01/25 09:54:46;;;;;;;16.27;10.45;;;5.70;86.90;;;;;;5055969;28;20028;-60
2021/01/25 09:57:12;;;;;;;13.98;10.23;;;5.70;87.10;;;;;;5053948;28;20087;-60
2021/01/25 09:59:38;;;;;;;14.30;9.73;;;5.70;87.50;;;;;;5047912;28;20040;-59
2021/01/25 10:02:03;;;;;;;12.25;8.52;;;5.70;87.70;;;;;;5050183;28;20068;-60
2021/01/25 10:04:29;;;;;;;13.40;9.45;;;5.70;88.00;;;;;;5040815;28;20029;-60
2021/01/25 10:06:55;;;;;;;10.90;7.65;;;5.70;88.30;;;;;;5046812;28;20051;-60
2021/01/25 10:09:20;;;;;;;14.82;9.32;;;5.70;88.20;;;;;;5048987;28;20060;-60
2021/01/25 10:11:46;;;;;;;14.73;9.27;;;5.70;87.90;;;;;;5052169;28;20052;-61
2021/01/25 10:14:12;;;;;;;12.15;8.65;;;5.70;87.70;;;;;;5049891;28;20036;-61
2021/01/25 10:16:38;;;;;;;12.75;8.73;;;5.70;87.90;;;;;;5046804;28;20430;-60
2021/01/25 10:19:03;;;;;;;14.45;9.50;;;5.70;88.10;;;;;;5050217;28;20037;-61
2021/01/25 10:21:29;;;;;;;16.00;9.98;;;5.80;88.40;;;;;;5048781;28;20479;-60
2021/01/25 10:23:55;;;;;;;15.15;9.38;;;5.80;88.20;;;;;;5048900;28;20915;-59
2021/01/25 10:26:21;;;;;;;14.80;10.63;;;5.80;88.30;;;;;;5045667;28;20028;-60
2021/01/25 10:28:48;;;;;;;19.40;11.18;;;5.90;88.40;;;;;;5052276;28;20032;-60
2021/01/25 10:31:14;;;;;;;17.90;10.55;;;5.90;88.40;;;;;;5050353;28;20137;-61
2021/01/25 10:33:40;;;;;;;16.20;10.43;;;5.90;88.60;;;;;;5051305;28;20415;-61
2021/01/25 10:36:06;;;;;;;15.63;10.15;;;6.00;88.70;;;;;;5051673;28;20029;-61
2021/01/25 10:38:32;;;;;;;18.08;11.48;;;6.00;88.50;;;;;;5049560;28;20048;-60
2021/01/25 10:40:58;;;;;;;16.13;10.05;;;6.00;88.20;;;;;;5056661;28;20129;-60
2021/01/25 10:43:24;;;;;;;20.67;10.93;;;6.00;88.00;;;;;;5052563;28;20076;-61
2021/01/25 10:45:49;;;;;;;16.80;10.00;;;6.00;87.90;;;;;;5057324;28;20035;-61
2021/01/25 10:48:15;;;;;;;17.70;10.32;;;5.90;87.80;;;;;;5051572;28;20047;-60
2021/01/25 10:50:41;;;;;;;17.73;11.25;;;5.90;87.80;;;;;;5055559;28;20068;-61
2021/01/25 10:53:06;;;;;;;19.08;11.30;;;5.90;88.00;;;;;;5056009;28;20543;-60
2021/01/25 10:55:32;;;;;;;20.58;11.55;;;5.90;88.60;;;;;;5058127;28;20028;-60
2021/01/25 10:57:57;;;;;;;17.92;10.52;;;5.90;88.60;;;;;;5045954;28;20041;-61
2021/01/25 11:00:24;;;;;;;20.13;11.63;;;6.00;88.60;;;;;;5052341;28;20481;-61
2021/01/25 11:02:51;;;;;;;20.60;11.98;;;6.00;88.40;;;;;;5054280;28;20028;-60
2021/01/25 11:05:20;;;;;;;19.23;11.95;;;6.10;88.70;;;;;;5054694;28;20119;-61
2021/01/25 11:07:47;;;;;;;22.58;12.45;;;6.10;88.20;;;;;;5054058;28;20051;-60
2021/01/25 11:10:20;;;;;;;19.92;12.50;;;6.10;87.90;;;;;;5049535;28;20504;-61
2021/01/25 11:12:48;;;;;;;21.40;12.85;;;6.10;87.60;;;;;;5056892;28;20024;-60
2021/01/25 11:15:14;;;;;;;23.52;13.85;;;6.00;87.40;;;;;;5061581;28;20119;-61
2021/01/25 11:17:40;;;;;;;26.30;15.02;;;5.90;87.50;;;;;;5051813;28;20037;-61
2021/01/25 11:20:07;;;;;;;21.17;11.88;;;5.80;87.70;;;;;;5053432;28;20085;-60
2021/01/25 11:22:32;;;;;;;22.52;12.98;;;5.80;88.10;;;;;;5055337;28;20485;-61
2021/01/25 11:24:58;;;;;;;22.95;14.60;;;5.80;88.40;;;;;;5059456;28;20021;-61
2021/01/25 11:27:24;;;;;;;21.42;12.77;;;5.80;88.50;;;;;;5051204;28;20036;-60
2021/01/25 11:29:50;;;;;;;22.13;14.13;;;5.80;88.60;;;;;;5052119;28;20024;-61
2021/01/25 11:32:15;;;;;;;24.20;13.35;;;5.70;88.50;;;;;;5049485;28;20039;-60
2021/01/25 11:34:41;;;;;;;22.65;13.20;;;5.70;88.60;;;;;;5055304;28;20775;-60
2021/01/25 11:37:07;;;;;;;26.95;14.52;;;5.70;88.80;;;;;;5053492;28;20032;-61
2021/01/25 11:39:33;;;;;;;25.10;15.32;;;5.70;89.20;;;;;;5052974;28;20037;-60
2021/01/25 11:42:00;;;;;;;23.63;13.73;;;5.70;89.40;;;;;;5051460;28;20064;-60
2021/01/25 11:44:26;;;;;;;24.15;14.15;;;5.70;89.70;;;;;;5050348;28;20045;-61
2021/01/25 11:46:53;;;;;;;23.40;13.55;;;5.80;89.80;;;;;;5053210;28;20037;-61
2021/01/25 11:49:19;;;;;;;22.15;14.15;;;5.80;90.00;;;;;;5037582;28;20028;-61
2021/01/25 11:51:46;;;;;;;24.50;15.20;;;5.90;90.10;;;;;;5054241;28;20040;-61
2021/01/25 11:54:12;;;;;;;26.58;15.18;;;5.90;89.80;;;;;;5052315;28;20029;-60
2021/01/25 11:56:38;;;;;;;20.25;13.55;;;5.90;89.50;;;;;;5054553;28;20040;-60
2021/01/25 11:59:04;;;;;;;22.65;15.40;;;5.90;89.60;;;;;;5055356;28;20039;-60
2021/01/25 12:01:30;;;;;;;24.10;14.13;;;5.90;89.70;;;;;;5053481;28;20186;-60
2021/01/25 12:03:56;;;;;;;21.88;15.55;;;5.90;89.60;;;;;;5044433;28;20415;-61
2021/01/25 12:06:22;;;;;;;23.23;14.95;;;5.80;89.40;;;;;;5045178;28;20670;-61
2021/01/25 12:08:48;;;;;;;25.33;15.00;;;5.80;89.60;;;;;;5047875;28;20040;-61
2021/01/25 12:11:14;;;;;;;23.88;12.65;;;5.80;89.80;;;;;;5048992;28;20040;-61
2021/01/25 12:13:40;;;;;;;22.95;15.50;;;5.80;89.60;;;;;;5056343;28;21633;-61
2021/01/25 12:16:06;;;;;;;21.73;14.73;;;5.80;89.50;;;;;;5056989;28;20032;-60
2021/01/25 12:18:33;;;;;;;26.55;15.77;;;5.70;89.30;;;;;;5049637;28;20043;-61
2021/01/25 12:20:58;;;;;;;26.88;15.93;;;5.70;89.50;;;;;;5047828;28;20111;-61
2021/01/25 12:23:25;;;;;;;26.05;15.93;;;5.70;89.50;;;;;;5051330;28;20031;-61
2021/01/25 12:25:51;;;;;;;24.02;14.23;;;5.60;89.50;;;;;;5050201;28;20029;-60
2021/01/25 12:28:17;;;;;;;30.85;17.58;;;5.60;89.80;;;;;;5049437;28;20059;-60
2021/01/25 12:30:43;;;;;;;26.10;15.20;;;5.60;90.00;;;;;;5051676;28;20790;-61
2021/01/25 12:33:09;;;;;;;27.65;17.30;;;5.60;90.10;;;;;;5055547;28;20044;-61
2021/01/25 12:35:34;;;;;;;27.23;16.02;;;5.60;90.30;;;;;;5056894;28;20067;-61
2021/01/25 12:38:00;;;;;;;27.63;17.33;;;5.70;90.40;;;;;;5055508;28;20143;-61
2021/01/25 12:40:26;;;;;;;26.63;16.05;;;5.70;90.20;;;;;;5047632;28;20029;-61
2021/01/25 12:42:53;;;;;;;26.45;15.80;;;5.70;90.20;;;;;;5046061;28;20496;-60